Time;durP1;ratioP1;P1;durP2;ratioP2;P2;SDS_P1;SDS_P2;PMS_P1;PMS_P2;Temp;Humidity;BMP_temperature;BMP_pressure;BME280_temperature;BME280_humidity;BME280_pressure;Samples;Min_cycle;Max_cycle;Signal;HPM_P1;HPM_P2
2022/10/11 00:00:45;;;;;;;;;;;;;;;12.61;100.00;95673.75;5078134;28;19933;-67
2022/10/11 00:03:13;;;;;;;;;;;;;;;12.62;100.00;95676.16;5082679;28;19932;-65
2022/10/11 00:05:40;;;;;;;;;;;;;;;12.62;100.00;95675.34;5078642;28;19924;-66
2022/10/11 00:08:10;;;;;;;;;;;;;;;12.66;100.00;95676.50;5079575;28;20557;-67
2022/10/11 00:10:41;;;;;;;;;;;;;;;12.51;100.00;95668.25;5077477;28;19924;-67
2022/10/11 00:13:08;;;;;;;;;;;;;;;12.61;100.00;95673.75;5077020;28;19978;-67
2022/10/11 00:15:34;;;;;;;;;;;;;;;12.66;100.00;95666.06;5076604;28;19928;-67
2022/10/11 00:18:01;;;;;;;;;;;;;;;12.68;100.00;95664.00;5078592;28;20010;-67
2022/10/11 00:20:30;;;;;;;;;;;;;;;12.62;100.00;95665.69;5077406;28;21232;-66
2022/10/11 00:22:57;;;;;;;;;;;;;;;12.58;100.00;95676.81;5080025;28;19928;-67
2022/10/11 00:25:24;;;;;;;;;;;;;;;12.63;100.00;95676.94;5102930;27;19951;-66
2022/10/11 00:27:50;;;;;;;;;;;;;;;12.62;100.00;95685.78;5078667;28;19963;-67
2022/10/11 00:30:17;;;;;;;;;;;;;;;12.60;100.00;95672.97;5075664;28;19964;-66
2022/10/11 00:32:44;;;;;;;;;;;;;;;12.67;100.00;95678.09;5077763;28;19932;-66
2022/10/11 00:35:10;;;;;;;;;;;;;;;12.52;100.00;95675.09;5082110;28;20005;-67
2022/10/11 00:37:37;;;;;;;;;;;;;;;12.48;100.00;95679.16;5077946;28;20011;-66
2022/10/11 00:40:05;;;;;;;;;;;;;;;12.46;100.00;95684.63;5079743;28;19940;-66
2022/10/11 00:42:32;;;;;;;;;;;;;;;12.53;100.00;95676.66;5077296;28;20791;-67
2022/10/11 00:45:18;;;;;;;;;;;;;;;12.52;100.00;95681.13;5079005;28;20001;-66
2022/10/11 00:47:44;;;;;;;;;;;;;;;12.52;100.00;95680.31;5076063;28;19932;-67
2022/10/11 00:50:11;;;;;;;;;;;;;;;12.48;100.00;95684.38;5076717;28;20624;-67
2022/10/11 00:52:40;;;;;;;;;;;;;;;12.51;100.00;95689.16;5077384;27;20848;-67
2022/10/11 00:55:11;;;;;;;;;;;;;;;12.55;100.00;95685.09;5079221;28;20046;-67
2022/10/11 00:57:40;;;;;;;;;;;;;;;12.58;100.00;95684.66;5074899;28;20046;-67
2022/10/11 01:00:10;;;;;;;;;;;;;;;12.48;100.00;95679.16;5078989;28;20040;-67
2022/10/11 01:02:37;;;;;;;;;;;;;;;12.30;100.00;95667.75;5076966;28;20029;-67
2022/10/11 01:05:05;;;;;;;;;;;;;;;12.28;100.00;95664.56;5079884;28;19928;-67
2022/10/11 01:07:52;;;;;;;;;;;;;;;12.21;100.00;95658.63;5077639;28;19928;-66
2022/10/11 01:10:19;;;;;;;;;;;;;;;12.27;100.00;95662.94;5078867;28;20037;-67
2022/10/11 01:13:00;;;;;;;;;;;;;;;12.27;100.00;95662.94;5075726;28;21273;-67
2022/10/11 01:15:35;;;;;;;;;;;;;;;12.29;100.00;95655.69;5075632;28;20007;-67
2022/10/11 01:18:22;;;;;;;;;;;;;;;12.19;100.00;95650.19;5103674;27;19955;-67
2022/10/11 01:21:08;;;;;;;;;;;;;;;12.10;100.00;95641.06;5076470;28;19935;-66
2022/10/11 01:23:47;;;;;;;;;;;;;;;11.96;100.00;95638.63;5077985;28;19949;-66
2022/10/11 01:26:39;;;;;;;;;;;;;;;12.02;100.00;95639.56;5077161;28;20456;-66
2022/10/11 01:29:25;;;;;;;;;;;;;;;11.89;100.00;95635.28;5078677;28;19928;-65
2022/10/11 01:31:51;;;;;;;;;;;;;;;11.86;100.00;95627.88;5079709;28;19929;-67
2022/10/11 01:34:26;;;;;;;;;;;;;;;11.94;100.00;95624.19;5077869;28;20402;-66
2022/10/11 01:36:52;;;;;;;;;;;;;;;11.90;100.00;95626.44;5081152;28;20563;-66
2022/10/11 01:39:25;;;;;;;;;;;;;;;11.90;100.00;95626.44;5078138;28;19924;-66
2022/10/11 01:41:54;;;;;;;;;;;;;;;11.80;100.00;95620.94;5078111;28;20393;-66
2022/10/11 01:44:22;;;;;;;;;;;;;;;11.77;100.00;95626.56;5076972;28;19924;-66
2022/10/11 01:46:50;;;;;;;;;;;;;;;11.77;100.00;95626.56;5077737;28;20608;-66
2022/10/11 01:49:16;;;;;;;;;;;;;;;11.82;100.00;95631.94;5077818;28;19928;-66
2022/10/11 01:51:47;;;;;;;;;;;;;;;11.84;100.00;95627.28;5072379;27;20029;-66
2022/10/11 01:54:26;;;;;;;;;;;;;;;11.73;100.00;95633.25;5078385;28;19975;-66
2022/10/11 01:57:15;;;;;;;;;;;;;;;11.76;100.00;95630.22;5075939;28;19928;-66
2022/10/11 02:00:00;;;;;;;;;;;;;;;11.60;100.00;95629.78;5076600;28;19934;-66
2022/10/11 02:02:40;;;;;;;;;;;;;;;11.64;100.00;95632.75;5079503;28;19928;-66
2022/10/11 02:05:11;;;;;;;;;;;;;;;11.64;100.00;95638.75;5081679;28;19936;-69
2022/10/11 02:07:47;;;;;;;;;;;;;;;11.69;100.00;95629.50;5075702;28;20355;-68
2022/10/11 02:10:23;;;;;;;;;;;;;;;11.71;100.00;95637.91;5080424;28;19947;-67
2022/10/11 02:12:54;;;;;;;;;;;;;;;11.63;100.00;95636.34;5078817;28;19928;-66
2022/10/11 02:15:22;;;;;;;;;;;;;;;11.64;100.00;95630.91;5080067;28;19924;-68
2022/10/11 02:17:51;;;;;;;;;;;;;;;11.73;100.00;95641.09;5080168;28;19932;-70
2022/10/11 02:20:19;;;;;;;;;;;;;;;11.69;100.00;95634.72;5080854;28;19932;-66
2022/10/11 02:22:48;;;;;;;;;;;;;;;11.61;100.00;95628.78;5082365;28;19958;-65
2022/10/11 02:25:24;;;;;;;;;;;;;;;11.64;100.00;95630.91;5081292;28;19959;-65
2022/10/11 02:27:53;;;;;;;;;;;;;;;11.63;100.00;95629.34;5083517;28;19932;-66
2022/10/11 02:30:19;;;;;;;;;;;;;;;11.67;100.00;95633.09;5086860;28;20596;-68
2022/10/11 02:32:48;;;;;;;;;;;;;;;11.42;100.00;95593.25;5081220;28;19977;-66
2022/10/11 02:35:15;;;;;;;;;;;;;;;11.67;100.00;95627.09;5084912;28;19928;-67
2022/10/11 02:38:00;;;;;;;;;;;;;;;11.68;100.00;95626.06;5083293;28;19924;-67
2022/10/11 02:40:36;;;;;;;;;;;;;;;11.52;100.00;95619.59;5086118;28;19939;-66
2022/10/11 02:43:08;;;;;;;;;;;;;;;11.57;100.00;95617.16;5086943;28;19967;-67
2022/10/11 02:45:41;;;;;;;;;;;;;;;11.45;100.00;95619.69;5082695;28;20810;-66
2022/10/11 02:48:09;;;;;;;;;;;;;;;11.56;100.00;95623.41;5082951;28;19931;-67
2022/10/11 02:50:37;;;;;;;;;;;;;;;11.59;100.00;95615.13;5078100;28;19990;-67
2022/10/11 02:53:04;;;;;;;;;;;;;;;11.65;100.00;95614.25;5082039;28;20729;-67
2022/10/11 02:55:31;;;;;;;;;;;;;;;11.61;100.00;95610.50;5079886;28;19966;-67
2022/10/11 02:57:57;;;;;;;;;;;;;;;11.69;100.00;95608.63;5083519;28;19924;-67
2022/10/11 03:00:24;;;;;;;;;;;;;;;11.68;100.00;95613.00;5079883;28;19931;-67
2022/10/11 03:02:51;;;;;;;;;;;;;;;11.61;100.00;95602.69;5081805;28;20430;-67
2022/10/11 03:05:18;;;;;;;;;;;;;;;11.68;100.00;95602.56;5081575;28;19932;-65
2022/10/11 03:07:45;;;;;;;;;;;;;;;11.77;100.00;95600.47;5081191;27;19932;-67
2022/10/11 03:10:11;;;;;;;;;;;;;;;11.69;100.00;95604.19;5080973;28;20027;-66
2022/10/11 03:12:38;;;;;;;;;;;;;;;11.75;100.00;95594.69;5079938;28;19924;-67
2022/10/11 03:15:05;;;;;;;;;;;;;;;11.87;100.00;95595.53;5084631;28;19931;-67
2022/10/11 03:17:31;;;;;;;;;;;;;;;11.82;100.00;95592.78;5079189;28;20067;-66
2022/10/11 03:20:03;;;;;;;;;;;;;;;11.84;100.00;95595.97;5081437;28;20397;-67
2022/10/11 03:22:30;;;;;;;;;;;;;;;11.88;100.00;95594.50;5080462;28;19987;-67
2022/10/11 03:24:57;;;;;;;;;;;;;;;11.99;100.00;95593.00;5082459;28;19932;-67
2022/10/11 03:27:29;;;;;;;;;;;;;;;11.98;100.00;95594.81;5078500;28;19935;-67
2022/10/11 03:29:56;;;;;;;;;;;;;;;11.98;100.00;95597.44;5081632;28;19924;-67
2022/10/11 03:32:23;;;;;;;;;;;;;;;12.05;100.00;95595.53;5104975;27;19986;-67
2022/10/11 03:34:50;;;;;;;;;;;;;;;11.88;100.00;95597.13;5080393;28;19928;-67
2022/10/11 03:37:17;;;;;;;;;;;;;;;11.98;100.00;95592.22;5078907;28;19977;-66
2022/10/11 03:39:44;;;;;;;;;;;;;;;11.96;100.00;95594.25;5079588;28;19930;-67
2022/10/11 03:42:11;;;;;;;;;;;;;;;12.00;100.00;95595.41;5081248;28;20080;-67
2022/10/11 03:44:38;;;;;;;;;;;;;;;11.89;100.00;95562.19;5077686;28;19932;-67
2022/10/11 03:47:05;;;;;;;;;;;;;;;12.14;100.00;95590.00;5081982;28;19928;-67
2022/10/11 03:49:32;;;;;;;;;;;;;;;12.22;100.00;95587.06;5077135;28;19928;-65
2022/10/11 03:51:58;;;;;;;;;;;;;;;12.15;100.00;95587.16;5078745;28;19972;-67
2022/10/11 03:54:25;;;;;;;;;;;;;;;12.13;100.00;95583.19;5077456;28;20369;-66
2022/10/11 03:56:52;;;;;;;;;;;;;;;12.10;100.00;95581.00;5079448;28;20018;-66
2022/10/11 03:59:18;;;;;;;;;;;;;;;12.11;100.00;95580.00;5079074;28;19971;-67
2022/10/11 04:01:45;;;;;;;;;;;;;;;12.13;100.00;95585.81;5081220;28;19932;-67
2022/10/11 04:04:12;;;;;;;;;;;;;;;12.15;100.00;95581.94;5077501;28;19935;-66
2022/10/11 04:06:38;;;;;;;;;;;;;;;12.20;100.00;95584.69;5078674;28;19931;-67
2022/10/11 04:09:05;;;;;;;;;;;;;;;12.20;100.00;95574.22;5079680;28;19932;-66
2022/10/11 04:11:32;;;;;;;;;;;;;;;12.21;100.00;95569.81;5078424;28;19967;-66
2022/10/11 04:13:58;;;;;;;;;;;;;;;12.18;100.00;95575.50;5077371;28;19936;-66
2022/10/11 04:16:25;;;;;;;;;;;;;;;12.15;100.00;95570.69;5077408;28;19959;-67
2022/10/11 04:18:51;;;;;;;;;;;;;;;12.21;100.00;95573.22;5078781;28;19928;-66
2022/10/11 04:21:18;;;;;;;;;;;;;;;12.20;100.00;95574.22;5078491;28;21354;-67
2022/10/11 04:23:45;;;;;;;;;;;;;;;12.24;100.00;95574.59;5080727;28;19935;-66
2022/10/11 04:26:11;;;;;;;;;;;;;;;12.29;100.00;95577.34;5079991;28;19928;-66
2022/10/11 04:28:38;;;;;;;;;;;;;;;12.33;100.00;95578.47;5079143;28;20034;-66
2022/10/11 04:31:06;;;;;;;;;;;;;;;12.31;100.00;95580.50;5078457;28;19924;-67
2022/10/11 04:33:33;;;;;;;;;;;;;;;12.32;100.00;95582.13;5076727;28;19993;-66
2022/10/11 04:36:00;;;;;;;;;;;;;;;12.29;100.00;95579.94;5076743;28;19929;-66
2022/10/11 04:38:27;;;;;;;;;;;;;;;12.31;100.00;95590.97;5077592;28;19928;-68
2022/10/11 04:40:53;;;;;;;;;;;;;;;12.30;100.00;95584.16;5076650;28;19932;-67
2022/10/11 04:43:20;;;;;;;;;;;;;;;12.33;100.00;95588.91;5074209;28;19932;-68
2022/10/11 04:45:47;;;;;;;;;;;;;;;12.23;100.00;95588.69;5078533;28;20467;-68
2022/10/11 04:48:18;;;;;;;;;;;;;;;12.27;100.00;95589.81;5076271;28;19932;-68
2022/10/11 04:50:45;;;;;;;;;;;;;;;12.26;100.00;95588.22;5074495;28;19980;-68
2022/10/11 04:53:14;;;;;;;;;;;;;;;12.28;100.00;95601.06;5074563;28;19959;-68
2022/10/11 04:55:41;;;;;;;;;;;;;;;12.25;100.00;95597.09;5078402;28;20491;-68
2022/10/11 04:58:08;;;;;;;;;;;;;;;12.39;100.00;95593.28;5076907;28;19938;-68
2022/10/11 05:00:34;;;;;;;;;;;;;;;12.39;100.00;95593.28;5078562;28;19928;-67
2022/10/11 05:03:01;;;;;;;;;;;;;;;12.36;100.00;95596.31;5083781;28;20162;-75
2022/10/11 05:05:27;;;;;;;;;;;;;;;12.43;100.00;95599.63;5078691;28;19935;-77
2022/10/11 05:07:54;;;;;;;;;;;;;;;12.42;100.00;95592.84;5081033;28;20001;-70
2022/10/11 05:10:21;;;;;;;;;;;;;;;12.45;100.00;95588.16;5077321;28;19936;-68
2022/10/11 05:12:47;;;;;;;;;;;;;;;12.50;100.00;95589.09;5075839;28;19928;-66
2022/10/11 05:15:14;;;;;;;;;;;;;;;12.47;100.00;95591.34;5076407;28;19988;-66
2022/10/11 05:17:40;;;;;;;;;;;;;;;12.46;100.00;95593.19;5081376;28;19935;-73
2022/10/11 05:20:08;;;;;;;;;;;;;;;12.41;100.00;95591.22;5074990;28;19936;-66
2022/10/11 05:22:35;;;;;;;;;;;;;;;12.52;100.00;95596.72;5075819;28;19994;-68
2022/10/11 05:25:01;;;;;;;;;;;;;;;12.56;100.00;95592.63;5075435;28;19951;-67
2022/10/11 05:27:28;;;;;;;;;;;;;;;12.52;100.00;95594.09;5080328;28;19935;-66
2022/10/11 05:29:55;;;;;;;;;;;;;;;12.50;100.00;95589.09;5072671;28;19993;-71
2022/10/11 05:32:21;;;;;;;;;;;;;;;12.58;100.00;95586.13;5074646;28;19980;-69
2022/10/11 05:34:53;;;;;;;;;;;;;;;12.55;100.00;95591.00;5075350;28;19928;-69
2022/10/11 05:37:19;;;;;;;;;;;;;;;12.51;100.00;95592.50;5077616;28;19928;-69
2022/10/11 05:39:46;;;;;;;;;;;;;;;12.61;100.00;95600.59;5078248;27;19924;-66
2022/10/11 05:42:13;;;;;;;;;;;;;;;12.65;100.00;95601.72;5076563;28;20293;-66
2022/10/11 05:44:39;;;;;;;;;;;;;;;12.69;100.00;95608.09;5078107;28;20600;-67
2022/10/11 05:47:06;;;;;;;;;;;;;;;12.78;100.00;95611.19;5074518;28;19932;-66
2022/10/11 05:49:33;;;;;;;;;;;;;;;12.81;100.00;95611.53;5079102;28;19977;-66
2022/10/11 05:51:59;;;;;;;;;;;;;;;12.81;100.00;95616.75;5076112;28;19924;-67
2022/10/11 05:54:28;;;;;;;;;;;;;;;12.89;100.00;95613.03;5081901;28;19931;-67
2022/10/11 05:56:55;;;;;;;;;;;;;;;12.60;100.00;95578.06;5078277;28;19989;-68
2022/10/11 05:59:21;;;;;;;;;;;;;;;12.95;100.00;95617.34;5077614;28;21400;-67
2022/10/11 06:01:48;;;;;;;;;;;;;;;13.03;100.00;95616.19;5077955;28;21369;-67
2022/10/11 06:04:17;;;;;;;;;;;;;;;13.13;100.00;95629.53;5080849;28;19924;-67
2022/10/11 06:06:44;;;;;;;;;;;;;;;13.15;100.00;95621.44;5081312;28;19932;-67
2022/10/11 06:09:11;;;;;;;;;;;;;;;13.20;100.00;95621.56;5079166;28;20018;-70
2022/10/11 06:11:40;;;;;;;;;;;;;;;13.25;100.00;95626.09;5081133;28;20246;-67
2022/10/11 06:14:07;;;;;;;;;;;;;;;13.22;100.00;95626.53;5083744;28;19924;-66
2022/10/11 06:16:34;;;;;;;;;;;;;;;13.29;100.00;95624.63;5080966;28;20631;-67
2022/10/11 06:19:00;;;;;;;;;;;;;;;13.27;100.00;95624.06;5102367;27;20059;-68
2022/10/11 06:21:27;;;;;;;;;;;;;;;13.37;100.00;95619.09;5082809;28;19936;-68
2022/10/11 06:23:53;;;;;;;;;;;;;;;13.47;100.00;95614.06;5104907;27;19971;-68
2022/10/11 06:26:27;;;;;;;;;;;;;;;13.52;100.00;95611.56;5086551;28;20017;-67
2022/10/11 06:28:53;;;;;;;;;;;;;;;13.57;100.00;95610.88;5083115;28;20473;-68
2022/10/11 06:31:20;;;;;;;;;;;;;;;13.51;100.00;95609.97;5111381;27;19928;-68
2022/10/11 06:33:47;;;;;;;;;;;;;;;13.54;100.00;95609.50;5084853;28;20070;-67
2022/10/11 06:36:14;;;;;;;;;;;;;;;13.45;100.00;95600.44;5082713;28;20523;-69
2022/10/11 06:38:41;;;;;;;;;;;;;;;13.47;100.00;95593.13;5081092;28;20012;-68
2022/10/11 06:41:22;;;;;;;;;;;;;;;13.37;100.00;95592.91;5080609;28;19935;-68
2022/10/11 06:43:49;;;;;;;;;;;;;;;13.36;100.00;95591.31;5081344;28;19928;-68
2022/10/11 06:48:14;;;;;;;;;;;;;;;13.32;100.00;95600.66;5145435;27;19961;-75
2022/10/11 06:50:40;;;;;;;;;;;;;;;13.32;100.00;95595.41;5113772;27;19933;-76
2022/10/11 06:53:26;;;;;;;;;;;;;;;13.38;100.00;95604.97;5135840;27;19927;-72
2022/10/11 06:55:53;;;;;;;;;;;;;;;13.44;100.00;95608.50;5128406;27;19924;-71
2022/10/11 06:58:19;;;;;;;;;;;;;;;13.46;100.00;95607.22;5130028;27;20411;-73
2022/10/11 07:00:46;;;;;;;;;;;;;;;13.51;100.00;95604.72;5126049;27;19935;-74
2022/10/11 07:03:13;;;;;;;;;;;;;;;13.66;100.00;95611.31;5130116;27;19927;-68
2022/10/11 07:05:39;;;;;;;;;;;;;;;13.70;100.00;95607.19;5127262;27;20772;-69
2022/10/11 07:08:06;;;;;;;;;;;;;;;13.80;100.00;95606.63;5129384;27;19981;-71
2022/10/11 07:10:34;;;;;;;;;;;;;;;13.81;100.00;95614.25;5126809;27;19924;-70
2022/10/11 07:13:00;;;;;;;;;;;;;;;13.91;100.00;95614.44;5124899;27;20326;-67
2022/10/11 07:15:27;;;;;;;;;;;;;;;13.95;100.00;95620.00;5126006;27;20589;-69
2022/10/11 07:17:53;;;;;;;;;;;;;;;13.91;100.00;95614.44;5127123;27;19956;-67
2022/10/11 07:20:20;;;;;;;;;;;;;;;13.89;100.00;95616.47;5128102;27;20026;-69
2022/10/11 07:22:47;;;;;;;;;;;;;;;13.90;100.00;95623.31;5120160;27;19978;-69
2022/10/11 07:25:13;;;;;;;;;;;;;;;13.84;100.00;95621.63;5137065;27;19971;-68
2022/10/11 07:27:40;;;;;;;;;;;;;;;13.81;100.00;95619.47;5122630;27;20065;-68
2022/10/11 07:30:07;;;;;;;;;;;;;;;13.64;100.00;95614.16;5124829;27;19970;-67
2022/10/11 07:32:34;;;;;;;;;;;;;;;13.63;100.00;95622.22;5106135;27;19935;-67
2022/10/11 07:35:00;;;;;;;;;;;;;;;13.69;100.00;95621.31;5122256;27;19931;-67
2022/10/11 07:37:27;;;;;;;;;;;;;;;13.69;100.00;95616.09;5128391;27;20626;-67
2022/10/11 07:39:53;;;;;;;;;;;;;;;13.69;100.00;95621.31;5123844;27;19962;-66
2022/10/11 07:42:21;;;;;;;;;;;;;;;13.69;100.00;95623.94;5125834;27;20629;-67
2022/10/11 07:44:48;;;;;;;;;;;;;;;13.72;100.00;95626.91;5127903;27;19923;-67
2022/10/11 07:47:14;;;;;;;;;;;;;;;13.80;100.00;95625.72;5132835;27;19932;-67
2022/10/11 07:49:41;;;;;;;;;;;;;;;13.73;100.00;95622.44;5108367;27;20538;-66
2022/10/11 07:52:07;;;;;;;;;;;;;;;13.84;100.00;95629.47;5140205;27;20408;-67
2022/10/11 07:54:34;;;;;;;;;;;;;;;13.91;100.00;95619.66;5133473;27;19977;-71
2022/10/11 07:57:01;;;;;;;;;;;;;;;14.13;100.00;95621.66;5133620;27;19930;-69
2022/10/11 07:59:27;;;;;;;;;;;;;;;14.26;100.00;95626.63;5114037;27;19984;-68
2022/10/11 08:01:54;;;;;;;;;;;;;;;14.25;100.00;95627.63;5112947;27;19932;-70
2022/10/11 08:04:20;;;;;;;;;;;;;;;14.33;100.00;95629.09;5092342;27;20624;-69
2022/10/11 08:06:47;;;;;;;;;;;;;;;14.49;100.00;95640.63;5114739;27;19953;-69
2022/10/11 08:09:18;;;;;;;;;;;;;;;14.62;100.00;95629.09;5110071;27;19927;-69
2022/10/11 08:11:45;;;;;;;;;;;;;;;14.67;100.00;95634.41;5112832;27;19959;-70
2022/10/11 08:14:12;;;;;;;;;;;;;;;14.61;100.00;95633.53;5108104;27;20019;-69
2022/10/11 08:16:38;;;;;;;;;;;;;;;14.64;100.00;95635.69;5110414;27;19928;-69
2022/10/11 08:19:05;;;;;;;;;;;;;;;14.62;100.00;95635.16;5118031;27;19939;-69
2022/10/11 08:21:32;;;;;;;;;;;;;;;14.62;100.00;95635.16;5111513;27;20815;-69
2022/10/11 08:24:00;;;;;;;;;;;;;;;14.71;100.00;95632.91;5114786;27;19985;-70
2022/10/11 08:26:27;;;;;;;;;;;;;;;14.68;100.00;95644.69;5115280;27;20516;-69
2022/10/11 08:28:54;;;;;;;;;;;;;;;14.57;100.00;95636.84;5113134;27;19951;-69
2022/10/11 08:31:21;;;;;;;;;;;;;;;14.63;100.00;95646.41;5111071;27;19930;-69
2022/10/11 08:33:47;;;;;;;;;;;;;;;14.74;100.00;95642.16;5116804;27;19927;-69
2022/10/11 08:36:14;;;;;;;;;;;;;;;14.70;100.00;95640.00;5111916;27;19924;-69
2022/10/11 08:38:41;;;;;;;;;;;;;;;14.76;100.00;95640.88;5112572;27;19935;-69
2022/10/11 08:41:22;;;;;;;;;;;;;;;14.90;100.00;95643.97;5109879;27;19924;-69
2022/10/11 08:44:08;;;;;;;;;;;;;;;15.09;100.00;95642.72;5110206;27;20714;-69
2022/10/11 08:46:36;;;;;;;;;;;;;;;15.13;100.00;95635.16;5105629;27;19928;-69
2022/10/11 08:49:04;;;;;;;;;;;;;;;15.32;100.00;95638.31;5111478;27;19965;-69
2022/10/11 08:51:34;;;;;;;;;;;;;;;15.53;100.00;95649.13;5113906;27;19919;-68
2022/10/11 08:54:04;;;;;;;;;;;;;;;15.20;100.00;95606.16;5107065;27;19931;-69
2022/10/11 08:56:38;;;;;;;;;;;;;;;15.70;100.00;95644.63;5111806;27;19974;-68
2022/10/11 08:59:11;;;;;;;;;;;;;;;15.61;100.00;95609.31;5109796;27;19928;-69
2022/10/11 09:01:44;;;;;;;;;;;;;;;15.81;100.00;95635.06;5113624;27;19954;-69
2022/10/11 09:04:13;;;;;;;;;;;;;;;15.84;100.00;95639.81;5111881;27;20014;-69
2022/10/11 09:07:03;;;;;;;;;;;;;;;15.78;100.00;95646.84;5116456;27;19984;-69
2022/10/11 09:09:51;;;;;;;;;;;;;;;15.88;100.00;95629.63;5108634;27;20650;-69
2022/10/11 09:12:21;;;;;;;;;;;;;;;15.97;100.00;95636.03;5115529;27;20015;-69
2022/10/11 09:14:50;;;;;;;;;;;;;;;15.52;100.00;95637.81;5108816;27;19928;-70
2022/10/11 09:17:37;;;;;;;;;;;;;;;15.49;100.00;95643.56;5113635;27;19942;-68
2022/10/11 09:20:26;;;;;;;;;;;;;;;15.37;100.00;95640.22;5110083;27;20027;-68
2022/10/11 09:22:58;;;;;;;;;;;;;;;15.27;100.00;95636.44;5109667;27;19935;-68
2022/10/11 09:25:38;;;;;;;;;;;;;;;15.56;100.00;95638.13;5110342;27;19924;-68
2022/10/11 09:28:21;;;;;;;;;;;;;;;15.63;100.00;95638.75;5110885;27;19931;-68
2022/10/11 09:30:49;;;;;;;;;;;;;;;15.79;100.00;95632.69;5109936;27;19935;-67
2022/10/11 09:33:22;;;;;;;;;;;;;;;15.97;100.00;95634.22;5107907;27;19995;-68
2022/10/11 09:35:50;;;;;;;;;;;;;;;16.10;100.00;95633.06;5095928;27;20000;-69
2022/10/11 09:38:22;;;;;;;;;;;;;;;16.12;100.00;95630.97;5111348;27;19928;-68
2022/10/11 09:41:12;;;;;;;;;;;;;;;16.36;100.00;95631.47;5111314;27;19979;-68
2022/10/11 09:43:39;;;;;;;;;;;;;;;16.18;100.00;95629.19;5101812;27;19924;-68
2022/10/11 09:46:17;;;;;;;;;;;;;;;16.24;100.00;95629.00;5108835;27;20023;-68
2022/10/11 09:48:43;;;;;;;;;;;;;;;16.23;100.00;95637.91;5111411;27;20047;-68
2022/10/11 09:51:14;;;;;;;;;;;;;;;16.41;100.00;95633.38;5105520;27;19924;-67
2022/10/11 09:53:49;;;;;;;;;;;;;;;16.61;100.00;95617.78;5111383;27;19927;-69
2022/10/11 09:56:16;;;;;;;;;;;;;;;16.79;100.00;95623.72;5109539;27;20599;-68
2022/10/11 09:58:42;;;;;;;;;;;;;;;16.66;100.00;95611.78;5111278;27;19950;-68
2022/10/11 10:01:11;;;;;;;;;;;;;;;16.92;100.00;95618.06;5109794;27;20023;-68
2022/10/11 10:03:39;;;;;;;;;;;;;;;17.14;100.00;95619.81;5110580;27;20352;-68
2022/10/11 10:06:07;;;;;;;;;;;;;;;17.04;100.00;95614.47;5111144;27;19927;-68
2022/10/11 10:08:35;;;;;;;;;;;;;;;17.29;100.00;95606.75;5110030;27;20577;-68
2022/10/11 10:11:04;;;;;;;;;;;;;;;17.16;100.00;95610.63;5108049;27;20700;-68
2022/10/11 10:13:51;;;;;;;;;;;;;;;17.27;100.00;95603.59;5106310;27;19920;-68
2022/10/11 10:16:31;;;;;;;;;;;;;;;17.26;100.00;95607.25;5113040;27;19955;-68
2022/10/11 10:19:00;;;;;;;;;;;;;;;17.34;100.00;95604.16;5110438;27;20963;-68
2022/10/11 10:21:27;;;;;;;;;;;;;;;17.51;100.00;95603.19;5108921;27;19923;-68
2022/10/11 10:23:55;;;;;;;;;;;;;;;17.64;100.00;95586.91;5112743;27;19928;-67
2022/10/11 10:26:23;;;;;;;;;;;;;;;17.51;100.00;95597.91;5109306;27;19967;-68
2022/10/11 10:28:53;;;;;;;;;;;;;;;17.60;100.00;95596.38;5110917;27;19928;-68
2022/10/11 10:31:21;;;;;;;;;;;;;;;17.58;100.00;95595.84;5112947;27;19962;-69
2022/10/11 10:33:51;;;;;;;;;;;;;;;17.78;100.00;95587.25;5108128;27;19959;-77
2022/10/11 10:36:20;;;;;;;;;;;;;;;17.72;100.00;95591.72;5096673;28;20343;-75
2022/10/11 10:38:54;;;;;;;;;;;;;;;17.35;100.00;95591.78;5089644;28;19959;-76
2022/10/11 10:41:21;;;;;;;;;;;;;;;17.58;100.00;95593.22;5110119;27;19981;-74
2022/10/11 10:43:52;;;;;;;;;;;;;;;17.66;100.00;95584.81;5111229;28;19970;-68
2022/10/11 10:46:28;;;;;;;;;;;;;;;17.56;100.00;95588.19;5110204;28;19938;-72
2022/10/11 10:49:22;;;;;;;;;;;;;;;17.56;100.00;95579.53;5110750;28;19931;-69
2022/10/11 10:52:21;;;;;;;;;;;;;;;17.55;100.00;95583.19;5116475;28;20584;-76
2022/10/11 10:54:47;;;;;;;;;;;;;;;17.79;100.00;95583.56;5113593;28;19945;-76
2022/10/11 10:57:33;;;;;;;;;;;;;;;17.58;100.00;95577.41;5132478;27;19923;-76
2022/10/11 11:00:14;;;;;;;;;;;;;;;17.65;100.00;95571.91;5123442;28;19996;-68
2022/10/11 11:02:49;;;;;;;;;;;;;;;18.06;100.00;95577.34;5093050;28;19927;-69
2022/10/11 11:05:22;;;;;;;;;;;;;;;18.31;100.00;95569.50;5123158;28;19931;-72
2022/10/11 11:07:54;;;;;;;;;;;;;;;18.49;100.00;95570.84;5107728;28;19980;-68
2022/10/11 11:10:29;;;;;;;;;;;;;;;18.84;100.00;95563.22;5106166;28;20301;-68
2022/10/11 11:13:15;;;;;;;;;;;;;;;19.05;100.00;95577.19;5105943;28;20022;-68
2022/10/11 11:15:47;;;;;;;;;;;;;;;19.37;84.84;95574.22;5110262;28;20654;-68
2022/10/11 11:18:27;;;;;;;;;;;;;;;19.37;83.22;95568.16;5109093;28;19923;-69
2022/10/11 11:21:13;;;;;;;;;;;;;;;19.13;83.66;95560.81;5088422;28;20627;-68
2022/10/11 11:23:54;;;;;;;;;;;;;;;19.03;84.18;95563.47;5109153;28;19928;-68
2022/10/11 11:26:31;;;;;;;;;;;;;;;18.76;83.30;95559.22;5109510;28;19954;-68
2022/10/11 11:29:21;;;;;;;;;;;;;;;19.01;81.23;95558.44;5111511;28;19927;-68
2022/10/11 11:32:07;;;;;;;;;;;;;;;19.38;80.82;95559.19;5109371;28;20533;-68
2022/10/11 11:34:54;;;;;;;;;;;;;;;19.59;78.79;95560.69;5095304;27;19930;-68
2022/10/11 11:37:39;;;;;;;;;;;;;;;19.40;78.73;95551.78;5017905;28;19925;-67
2022/10/11 11:40:15;;;;;;;;;;;;;;;19.70;76.68;95556.16;5114903;27;19927;-73
2022/10/11 11:42:50;;;;;;;;;;;;;;;20.42;76.37;95546.00;5101488;27;19923;-74
2022/10/11 11:45:17;;;;;;;;;;;;;;;20.39;74.09;95549.19;5128928;27;19923;-72
2022/10/11 11:47:46;;;;;;;;;;;;;;;20.36;74.84;95552.38;5119004;27;19980;-74
2022/10/11 11:50:24;;;;;;;;;;;;;;;20.56;71.50;95550.66;5112861;27;19934;-74
2022/10/11 11:52:55;;;;;;;;;;;;;;;21.10;71.17;95548.91;5121707;27;19930;-75
2022/10/11 11:55:22;;;;;;;;;;;;;;;20.86;70.53;95548.88;5115086;27;20430;-74
2022/10/11 11:57:56;;;;;;;;;;;;;;;20.81;70.33;95531.97;5118450;27;20018;-74
2022/10/11 12:00:26;;;;;;;;;;;;;;;20.52;70.55;95542.47;5115292;27;19927;-74
2022/10/11 12:03:00;;;;;;;;;;;;;;;20.50;72.68;95535.91;5118943;27;19928;-73
2022/10/11 12:05:29;;;;;;;;;;;;;;;20.54;72.20;95536.91;5111790;27;19934;-75
2022/10/11 12:07:58;;;;;;;;;;;;;;;20.47;71.56;95541.72;5111814;27;19992;-75
2022/10/11 12:10:28;;;;;;;;;;;;;;;20.35;72.56;95540.22;5108018;27;20022;-71
2022/10/11 12:13:15;;;;;;;;;;;;;;;20.13;72.49;95537.19;5106458;27;19931;-70
2022/10/11 12:15:59;;;;;;;;;;;;;;;19.98;73.56;95536.22;5103182;27;20005;-71
2022/10/11 12:18:26;;;;;;;;;;;;;;;19.78;77.33;95537.13;5094073;27;19934;-73
2022/10/11 12:21:04;;;;;;;;;;;;;;;19.88;76.50;95536.28;5114635;27;20334;-74
2022/10/11 12:23:32;;;;;;;;;;;;;;;19.85;83.25;95532.31;5100085;27;20209;-72
2022/10/11 12:26:17;;;;;;;;;;;;;;;19.83;75.62;95537.09;5112865;27;19970;-70
2022/10/11 12:28:57;;;;;;;;;;;;;;;19.81;75.88;95535.78;5113439;27;19938;-69
2022/10/11 12:31:26;;;;;;;;;;;;;;;19.70;87.94;95529.75;5110147;27;19958;-67
2022/10/11 12:34:08;;;;;;;;;;;;;;;19.68;76.86;95532.66;5110913;27;20026;-69
2022/10/11 12:36:39;;;;;;;;;;;;;;;19.55;77.97;95532.44;5109325;27;19931;-69
2022/10/11 12:39:18;;;;;;;;;;;;;;;19.29;76.46;95532.53;5114201;27;19927;-64
2022/10/11 12:41:52;;;;;;;;;;;;;;;19.12;76.92;95527.53;5115514;27;19956;-68
2022/10/11 12:44:26;;;;;;;;;;;;;;;19.20;76.34;95532.28;5112813;27;19941;-67
2022/10/11 12:46:53;;;;;;;;;;;;;;;18.86;77.05;95522.31;5112151;27;19931;-66
2022/10/11 12:49:25;;;;;;;;;;;;;;;18.75;77.59;95526.00;5111173;27;19928;-66
2022/10/11 12:51:51;;;;;;;;;;;;;;;18.65;76.63;95523.34;5114758;27;20021;-73
2022/10/11 12:54:27;;;;;;;;;;;;;;;18.43;78.35;95519.13;5106370;27;20019;-72
2022/10/11 12:57:08;;;;;;;;;;;;;;;18.45;79.42;95521.50;5104766;27;19985;-70